sensor_id;sensor_type;location;lat;lon;timestamp;P1;durP1;ratioP1;P2;durP2;ratioP2
80127;SDS011;69440;52.118;5.408;2023-10-31T00:01:18;2.10;;;0.60;;
80127;SDS011;69440;52.118;5.408;2023-10-31T00:03:46;3.30;;;0.90;;
80127;SDS011;69440;52.118;5.408;2023-10-31T00:06:12;3.13;;;0.90;;
80127;SDS011;69440;52.118;5.408;2023-10-31T00:08:39;1.33;;;0.55;;
80127;SDS011;69440;52.118;5.408;2023-10-31T00:11:05;2.53;;;0.70;;
80127;SDS011;69440;52.118;5.408;2023-10-31T00:13:32;2.38;;;0.55;;
80127;SDS011;69440;52.118;5.408;2023-10-31T00:15:58;3.58;;;0.82;;
80127;SDS011;69440;52.118;5.408;2023-10-31T00:18:25;5.50;;;0.75;;
80127;SDS011;69440;52.118;5.408;2023-10-31T00:20:51;2.95;;;0.77;;
80127;SDS011;69440;52.118;5.408;2023-10-31T00:23:18;3.17;;;0.60;;
80127;SDS011;69440;52.118;5.408;2023-10-31T00:25:44;5.63;;;1.00;;
80127;SDS011;69440;52.118;5.408;2023-10-31T00:28:11;2.78;;;1.20;;
80127;SDS011;69440;52.118;5.408;2023-10-31T00:30:37;3.85;;;1.27;;
80127;SDS011;69440;52.118;5.408;2023-10-31T00:33:04;7.35;;;1.80;;
80127;SDS011;69440;52.118;5.408;2023-10-31T00:35:30;6.07;;;1.70;;
80127;SDS011;69440;52.118;5.408;2023-10-31T00:37:57;4.90;;;2.60;;
80127;SDS011;69440;52.118;5.408;2023-10-31T00:40:23;9.93;;;2.70;;
80127;SDS011;69440;52.118;5.408;2023-10-31T00:42:50;7.43;;;2.45;;
80127;SDS011;69440;52.118;5.408;2023-10-31T00:45:16;5.63;;;2.42;;
80127;SDS011;69440;52.118;5.408;2023-10-31T00:47:43;5.88;;;2.47;;
80127;SDS011;69440;52.118;5.408;2023-10-31T00:50:09;6.70;;;3.00;;
80127;SDS011;69440;52.118;5.408;2023-10-31T00:52:36;7.68;;;3.00;;
80127;SDS011;69440;52.118;5.408;2023-10-31T00:55:03;6.38;;;3.30;;
80127;SDS011;69440;52.118;5.408;2023-10-31T00:57:29;9.93;;;3.72;;
80127;SDS011;69440;52.118;5.408;2023-10-31T00:59:56;8.48;;;3.35;;
80127;SDS011;69440;52.118;5.408;2023-10-31T01:02:22;10.07;;;3.70;;
80127;SDS011;69440;52.118;5.408;2023-10-31T01:04:49;7.93;;;3.97;;
80127;SDS011;69440;52.118;5.408;2023-10-31T01:07:15;8.02;;;3.65;;
80127;SDS011;69440;52.118;5.408;2023-10-31T01:09:43;7.13;;;3.38;;
80127;SDS011;69440;52.118;5.408;2023-10-31T01:12:10;7.05;;;3.95;;
80127;SDS011;69440;52.118;5.408;2023-10-31T01:14:37;8.45;;;3.40;;
80127;SDS011;69440;52.118;5.408;2023-10-31T01:17:03;10.82;;;3.88;;
80127;SDS011;69440;52.118;5.408;2023-10-31T01:19:30;8.23;;;4.00;;
80127;SDS011;69440;52.118;5.408;2023-10-31T01:21:56;8.88;;;4.05;;
80127;SDS011;69440;52.118;5.408;2023-10-31T01:24:23;9.57;;;5.05;;
80127;SDS011;69440;52.118;5.408;2023-10-31T01:26:50;7.32;;;3.85;;
80127;SDS011;69440;52.118;5.408;2023-10-31T01:29:16;8.50;;;3.70;;
80127;SDS011;69440;52.118;5.408;2023-10-31T01:31:43;10.63;;;4.40;;
80127;SDS011;69440;52.118;5.408;2023-10-31T01:34:24;8.65;;;4.70;;
80127;SDS011;69440;52.118;5.408;2023-10-31T01:36:51;7.38;;;3.92;;
80127;SDS011;69440;52.118;5.408;2023-10-31T01:39:18;8.60;;;4.00;;
80127;SDS011;69440;52.118;5.408;2023-10-31T01:41:44;8.95;;;4.55;;
80127;SDS011;69440;52.118;5.408;2023-10-31T01:44:10;9.65;;;4.00;;
80127;SDS011;69440;52.118;5.408;2023-10-31T01:46:37;8.95;;;4.25;;
80127;SDS011;69440;52.118;5.408;2023-10-31T01:49:03;6.57;;;3.72;;
80127;SDS011;69440;52.118;5.408;2023-10-31T01:51:30;9.35;;;3.90;;
80127;SDS011;69440;52.118;5.408;2023-10-31T01:53:56;8.45;;;4.00;;
80127;SDS011;69440;52.118;5.408;2023-10-31T01:56:23;7.40;;;4.22;;
80127;SDS011;69440;52.118;5.408;2023-10-31T01:58:51;10.73;;;4.43;;
80127;SDS011;69440;52.118;5.408;2023-10-31T02:01:19;9.68;;;5.13;;
80127;SDS011;69440;52.118;5.408;2023-10-31T02:03:46;9.00;;;5.20;;
80127;SDS011;69440;52.118;5.408;2023-10-31T02:06:13;10.52;;;4.72;;
80127;SDS011;69440;52.118;5.408;2023-10-31T02:08:39;9.02;;;4.57;;
80127;SDS011;69440;52.118;5.408;2023-10-31T02:11:06;13.77;;;5.13;;
80127;SDS011;69440;52.118;5.408;2023-10-31T02:13:36;9.93;;;5.03;;
80127;SDS011;69440;52.118;5.408;2023-10-31T02:16:04;10.00;;;5.25;;
80127;SDS011;69440;52.118;5.408;2023-10-31T02:18:30;10.73;;;5.20;;
80127;SDS011;69440;52.118;5.408;2023-10-31T02:20:57;12.25;;;5.75;;
80127;SDS011;69440;52.118;5.408;2023-10-31T02:23:24;11.10;;;5.22;;
80127;SDS011;69440;52.118;5.408;2023-10-31T02:25:51;12.35;;;6.53;;
80127;SDS011;69440;52.118;5.408;2023-10-31T02:28:17;14.48;;;6.50;;
80127;SDS011;69440;52.118;5.408;2023-10-31T02:30:44;10.98;;;5.43;;
80127;SDS011;69440;52.118;5.408;2023-10-31T02:33:10;10.75;;;5.85;;
80127;SDS011;69440;52.118;5.408;2023-10-31T02:35:40;13.55;;;6.80;;
80127;SDS011;69440;52.118;5.408;2023-10-31T02:38:23;17.55;;;6.45;;
80127;SDS011;69440;52.118;5.408;2023-10-31T02:40:49;13.18;;;5.78;;
80127;SDS011;69440;52.118;5.408;2023-10-31T02:43:16;8.90;;;5.25;;
80127;SDS011;69440;52.118;5.408;2023-10-31T02:45:42;9.32;;;5.07;;
80127;SDS011;69440;52.118;5.408;2023-10-31T02:48:08;10.30;;;4.97;;
80127;SDS011;69440;52.118;5.408;2023-10-31T02:50:35;9.65;;;3.80;;
80127;SDS011;69440;52.118;5.408;2023-10-31T02:53:02;8.98;;;3.90;;
80127;SDS011;69440;52.118;5.408;2023-10-31T02:55:28;11.02;;;3.90;;
80127;SDS011;69440;52.118;5.408;2023-10-31T02:57:55;8.57;;;3.88;;
80127;SDS011;69440;52.118;5.408;2023-10-31T03:00:21;8.00;;;3.30;;
80127;SDS011;69440;52.118;5.408;2023-10-31T03:02:48;7.38;;;2.88;;
80127;SDS011;69440;52.118;5.408;2023-10-31T03:05:14;6.10;;;2.88;;
80127;SDS011;69440;52.118;5.408;2023-10-31T03:07:41;6.28;;;3.28;;
80127;SDS011;69440;52.118;5.408;2023-10-31T03:10:07;6.30;;;2.72;;
80127;SDS011;69440;52.118;5.408;2023-10-31T03:12:34;7.65;;;3.13;;
80127;SDS011;69440;52.118;5.408;2023-10-31T03:15:00;9.98;;;3.17;;
80127;SDS011;69440;52.118;5.408;2023-10-31T03:17:27;5.00;;;2.60;;
80127;SDS011;69440;52.118;5.408;2023-10-31T03:19:54;8.40;;;3.58;;
80127;SDS011;69440;52.118;5.408;2023-10-31T03:22:21;7.10;;;2.78;;
80127;SDS011;69440;52.118;5.408;2023-10-31T03:24:47;6.65;;;3.13;;
80127;SDS011;69440;52.118;5.408;2023-10-31T03:27:14;7.72;;;3.78;;
80127;SDS011;69440;52.118;5.408;2023-10-31T03:29:40;6.38;;;2.97;;
80127;SDS011;69440;52.118;5.408;2023-10-31T03:32:06;6.63;;;2.80;;
80127;SDS011;69440;52.118;5.408;2023-10-31T03:34:33;9.07;;;2.83;;
80127;SDS011;69440;52.118;5.408;2023-10-31T03:36:59;7.90;;;2.83;;
80127;SDS011;69440;52.118;5.408;2023-10-31T03:39:26;9.00;;;2.90;;
80127;SDS011;69440;52.118;5.408;2023-10-31T03:41:53;8.57;;;2.63;;
80127;SDS011;69440;52.118;5.408;2023-10-31T03:44:19;7.18;;;2.28;;
80127;SDS011;69440;52.118;5.408;2023-10-31T03:46:46;4.25;;;1.98;;
80127;SDS011;69440;52.118;5.408;2023-10-31T03:49:12;4.50;;;1.70;;
80127;SDS011;69440;52.118;5.408;2023-10-31T03:51:39;4.47;;;1.42;;
80127;SDS011;69440;52.118;5.408;2023-10-31T03:54:05;4.70;;;1.40;;
80127;SDS011;69440;52.118;5.408;2023-10-31T03:56:38;2.70;;;1.05;;
80127;SDS011;69440;52.118;5.408;2023-10-31T03:59:06;2.25;;;0.93;;
80127;SDS011;69440;52.118;5.408;2023-10-31T04:01:32;3.33;;;0.88;;
80127;SDS011;69440;52.118;5.408;2023-10-31T04:03:59;1.73;;;0.85;;
80127;SDS011;69440;52.118;5.408;2023-10-31T04:06:26;1.92;;;0.70;;
80127;SDS011;69440;52.118;5.408;2023-10-31T04:08:52;2.30;;;0.70;;
80127;SDS011;69440;52.118;5.408;2023-10-31T04:11:19;3.30;;;0.70;;
80127;SDS011;69440;52.118;5.408;2023-10-31T04:13:45;3.08;;;0.70;;
80127;SDS011;69440;52.118;5.408;2023-10-31T04:16:12;1.83;;;0.70;;
80127;SDS011;69440;52.118;5.408;2023-10-31T04:18:38;1.73;;;0.60;;
80127;SDS011;69440;52.118;5.408;2023-10-31T04:21:05;2.13;;;0.73;;
80127;SDS011;69440;52.118;5.408;2023-10-31T04:23:32;1.27;;;0.70;;
80127;SDS011;69440;52.118;5.408;2023-10-31T04:26:00;2.70;;;0.70;;
80127;SDS011;69440;52.118;5.408;2023-10-31T04:28:26;2.03;;;0.65;;
80127;SDS011;69440;52.118;5.408;2023-10-31T04:30:52;1.42;;;0.70;;
80127;SDS011;69440;52.118;5.408;2023-10-31T04:33:19;4.70;;;0.85;;
80127;SDS011;69440;52.118;5.408;2023-10-31T04:35:45;3.60;;;0.70;;
80127;SDS011;69440;52.118;5.408;2023-10-31T04:38:12;2.55;;;0.80;;
80127;SDS011;69440;52.118;5.408;2023-10-31T04:40:38;2.55;;;0.90;;
80127;SDS011;69440;52.118;5.408;2023-10-31T04:43:05;3.80;;;0.80;;
80127;SDS011;69440;52.118;5.408;2023-10-31T04:45:31;4.65;;;0.90;;
80127;SDS011;69440;52.118;5.408;2023-10-31T04:47:58;2.35;;;0.80;;
80127;SDS011;69440;52.118;5.408;2023-10-31T04:50:24;2.75;;;1.15;;
80127;SDS011;69440;52.118;5.408;2023-10-31T04:52:51;3.88;;;1.02;;
80127;SDS011;69440;52.118;5.408;2023-10-31T04:55:17;2.67;;;0.95;;
80127;SDS011;69440;52.118;5.408;2023-10-31T04:57:44;3.22;;;0.95;;
80127;SDS011;69440;52.118;5.408;2023-10-31T05:00:10;3.05;;;1.08;;
80127;SDS011;69440;52.118;5.408;2023-10-31T05:02:37;3.33;;;1.10;;
80127;SDS011;69440;52.118;5.408;2023-10-31T05:05:04;3.67;;;0.90;;
80127;SDS011;69440;52.118;5.408;2023-10-31T05:07:31;1.08;;;0.88;;
80127;SDS011;69440;52.118;5.408;2023-10-31T05:09:59;3.10;;;0.90;;
80127;SDS011;69440;52.118;5.408;2023-10-31T05:12:25;3.28;;;0.80;;
80127;SDS011;69440;52.118;5.408;2023-10-31T05:14:52;3.15;;;0.85;;
80127;SDS011;69440;52.118;5.408;2023-10-31T05:17:18;2.92;;;0.80;;
80127;SDS011;69440;52.118;5.408;2023-10-31T05:19:45;2.45;;;0.80;;
80127;SDS011;69440;52.118;5.408;2023-10-31T05:22:11;1.38;;;0.70;;
80127;SDS011;69440;52.118;5.408;2023-10-31T05:24:38;1.25;;;0.70;;
80127;SDS011;69440;52.118;5.408;2023-10-31T05:27:04;2.08;;;0.63;;
80127;SDS011;69440;52.118;5.408;2023-10-31T05:29:33;1.05;;;0.63;;
80127;SDS011;69440;52.118;5.408;2023-10-31T05:32:00;1.30;;;0.35;;
80127;SDS011;69440;52.118;5.408;2023-10-31T05:34:27;1.02;;;0.75;;
80127;SDS011;69440;52.118;5.408;2023-10-31T05:36:54;1.40;;;0.70;;
80127;SDS011;69440;52.118;5.408;2023-10-31T05:39:20;1.63;;;0.85;;
80127;SDS011;69440;52.118;5.408;2023-10-31T05:41:46;1.15;;;0.60;;
80127;SDS011;69440;52.118;5.408;2023-10-31T05:44:13;2.08;;;0.80;;
80127;SDS011;69440;52.118;5.408;2023-10-31T05:46:39;2.83;;;1.60;;
80127;SDS011;69440;52.118;5.408;2023-10-31T05:49:07;3.13;;;1.17;;
80127;SDS011;69440;52.118;5.408;2023-10-31T05:51:34;4.03;;;1.23;;
80127;SDS011;69440;52.118;5.408;2023-10-31T05:54:01;4.68;;;1.30;;
80127;SDS011;69440;52.118;5.408;2023-10-31T05:56:28;4.55;;;1.80;;
80127;SDS011;69440;52.118;5.408;2023-10-31T05:58:54;3.90;;;1.50;;
80127;SDS011;69440;52.118;5.408;2023-10-31T06:01:21;4.18;;;2.05;;
80127;SDS011;69440;52.118;5.408;2023-10-31T06:03:47;4.82;;;2.08;;
80127;SDS011;69440;52.118;5.408;2023-10-31T06:06:14;3.90;;;1.77;;
80127;SDS011;69440;52.118;5.408;2023-10-31T06:08:41;5.05;;;2.30;;
80127;SDS011;69440;52.118;5.408;2023-10-31T06:11:07;3.58;;;1.95;;
80127;SDS011;69440;52.118;5.408;2023-10-31T06:13:34;6.43;;;2.15;;
80127;SDS011;69440;52.118;5.408;2023-10-31T06:16:04;6.47;;;2.42;;
80127;SDS011;69440;52.118;5.408;2023-10-31T06:18:33;7.13;;;2.80;;
80127;SDS011;69440;52.118;5.408;2023-10-31T06:21:01;6.28;;;2.90;;
80127;SDS011;69440;52.118;5.408;2023-10-31T06:23:27;8.02;;;2.88;;
80127;SDS011;69440;52.118;5.408;2023-10-31T06:25:57;6.70;;;3.08;;
80127;SDS011;69440;52.118;5.408;2023-10-31T06:28:24;5.35;;;3.15;;
80127;SDS011;69440;52.118;5.408;2023-10-31T06:30:53;10.50;;;5.03;;
80127;SDS011;69440;52.118;5.408;2023-10-31T06:33:26;6.10;;;4.63;;
80127;SDS011;69440;52.118;5.408;2023-10-31T06:35:52;4.75;;;2.90;;
80127;SDS011;69440;52.118;5.408;2023-10-31T06:38:20;5.95;;;2.45;;
80127;SDS011;69440;52.118;5.408;2023-10-31T06:40:46;7.57;;;4.47;;
80127;SDS011;69440;52.118;5.408;2023-10-31T06:43:13;7.03;;;3.10;;
80127;SDS011;69440;52.118;5.408;2023-10-31T06:45:39;6.07;;;3.00;;
80127;SDS011;69440;52.118;5.408;2023-10-31T06:48:06;5.38;;;2.60;;
80127;SDS011;69440;52.118;5.408;2023-10-31T06:50:35;3.60;;;2.55;;
80127;SDS011;69440;52.118;5.408;2023-10-31T06:53:01;5.85;;;1.95;;
80127;SDS011;69440;52.118;5.408;2023-10-31T06:55:28;3.42;;;1.90;;
80127;SDS011;69440;52.118;5.408;2023-10-31T06:57:54;4.78;;;2.03;;
80127;SDS011;69440;52.118;5.408;2023-10-31T07:00:21;4.35;;;2.63;;
80127;SDS011;69440;52.118;5.408;2023-10-31T07:02:47;3.13;;;1.77;;
80127;SDS011;69440;52.118;5.408;2023-10-31T07:05:14;2.83;;;1.13;;
80127;SDS011;69440;52.118;5.408;2023-10-31T07:07:41;6.35;;;1.35;;
80127;SDS011;69440;52.118;5.408;2023-10-31T07:10:08;1.63;;;0.90;;
80127;SDS011;69440;52.118;5.408;2023-10-31T07:12:34;4.93;;;1.33;;
80127;SDS011;69440;52.118;5.408;2023-10-31T07:15:01;3.15;;;1.08;;
80127;SDS011;69440;52.118;5.408;2023-10-31T07:17:27;2.60;;;0.98;;
80127;SDS011;69440;52.118;5.408;2023-10-31T07:19:54;1.85;;;1.00;;
80127;SDS011;69440;52.118;5.408;2023-10-31T07:22:21;4.95;;;1.48;;
80127;SDS011;69440;52.118;5.408;2023-10-31T07:24:51;4.25;;;1.13;;
80127;SDS011;69440;52.118;5.408;2023-10-31T07:27:18;5.15;;;1.45;;
80127;SDS011;69440;52.118;5.408;2023-10-31T07:29:44;3.80;;;1.10;;
80127;SDS011;69440;52.118;5.408;2023-10-31T07:32:12;3.83;;;1.17;;
80127;SDS011;69440;52.118;5.408;2023-10-31T07:34:42;3.13;;;1.00;;
80127;SDS011;69440;52.118;5.408;2023-10-31T07:37:08;2.97;;;1.17;;
80127;SDS011;69440;52.118;5.408;2023-10-31T07:39:35;1.85;;;0.73;;
80127;SDS011;69440;52.118;5.408;2023-10-31T07:42:01;2.20;;;1.00;;
80127;SDS011;69440;52.118;5.408;2023-10-31T07:44:28;4.60;;;1.42;;
80127;SDS011;69440;52.118;5.408;2023-10-31T07:46:55;3.30;;;1.33;;
80127;SDS011;69440;52.118;5.408;2023-10-31T07:49:22;4.70;;;1.17;;
80127;SDS011;69440;52.118;5.408;2023-10-31T07:51:48;4.55;;;1.40;;
80127;SDS011;69440;52.118;5.408;2023-10-31T07:54:15;2.28;;;1.30;;
80127;SDS011;69440;52.118;5.408;2023-10-31T07:56:42;5.00;;;1.23;;
80127;SDS011;69440;52.118;5.408;2023-10-31T07:59:09;5.88;;;1.95;;
80127;SDS011;69440;52.118;5.408;2023-10-31T08:01:35;4.03;;;1.55;;
80127;SDS011;69440;52.118;5.408;2023-10-31T08:04:02;3.90;;;2.10;;
80127;SDS011;69440;52.118;5.408;2023-10-31T08:06:29;2.92;;;1.35;;
80127;SDS011;69440;52.118;5.408;2023-10-31T08:08:55;7.75;;;1.90;;
80127;SDS011;69440;52.118;5.408;2023-10-31T08:11:22;6.38;;;1.75;;
80127;SDS011;69440;52.118;5.408;2023-10-31T08:13:49;4.78;;;1.50;;
80127;SDS011;69440;52.118;5.408;2023-10-31T08:16:18;3.53;;;1.77;;
80127;SDS011;69440;52.118;5.408;2023-10-31T08:18:45;2.13;;;1.40;;
80127;SDS011;69440;52.118;5.408;2023-10-31T08:21:13;3.75;;;2.97;;
80127;SDS011;69440;52.118;5.408;2023-10-31T08:23:40;4.13;;;1.75;;
80127;SDS011;69440;52.118;5.408;2023-10-31T08:26:06;6.85;;;3.65;;
80127;SDS011;69440;52.118;5.408;2023-10-31T08:28:33;6.63;;;4.93;;
80127;SDS011;69440;52.118;5.408;2023-10-31T08:31:00;5.25;;;3.20;;
80127;SDS011;69440;52.118;5.408;2023-10-31T08:33:26;4.97;;;2.47;;
80127;SDS011;69440;52.118;5.408;2023-10-31T08:35:53;7.60;;;4.30;;
80127;SDS011;69440;52.118;5.408;2023-10-31T08:38:19;6.03;;;2.30;;
80127;SDS011;69440;52.118;5.408;2023-10-31T08:40:56;26.58;;;14.45;;
80127;SDS011;69440;52.118;5.408;2023-10-31T08:43:22;5.43;;;3.47;;
80127;SDS011;69440;52.118;5.408;2023-10-31T08:45:49;6.53;;;3.30;;
80127;SDS011;69440;52.118;5.408;2023-10-31T08:48:15;4.82;;;2.30;;
80127;SDS011;69440;52.118;5.408;2023-10-31T08:50:42;11.20;;;5.60;;
80127;SDS011;69440;52.118;5.408;2023-10-31T08:53:09;6.50;;;2.65;;
80127;SDS011;69440;52.118;5.408;2023-10-31T08:55:36;5.15;;;2.50;;
80127;SDS011;69440;52.118;5.408;2023-10-31T08:58:02;9.80;;;5.82;;
80127;SDS011;69440;52.118;5.408;2023-10-31T09:00:29;4.40;;;2.50;;
80127;SDS011;69440;52.118;5.408;2023-10-31T09:02:55;5.80;;;3.05;;
80127;SDS011;69440;52.118;5.408;2023-10-31T09:05:22;5.82;;;3.38;;
80127;SDS011;69440;52.118;5.408;2023-10-31T09:07:48;3.90;;;2.15;;
80127;SDS011;69440;52.118;5.408;2023-10-31T09:10:15;6.03;;;2.20;;
80127;SDS011;69440;52.118;5.408;2023-10-31T09:12:41;8.02;;;3.50;;
80127;SDS011;69440;52.118;5.408;2023-10-31T09:15:08;5.10;;;2.47;;
80127;SDS011;69440;52.118;5.408;2023-10-31T09:17:35;10.10;;;4.07;;
80127;SDS011;69440;52.118;5.408;2023-10-31T09:20:02;7.57;;;4.53;;
80127;SDS011;69440;52.118;5.408;2023-10-31T09:22:29;14.40;;;6.78;;
80127;SDS011;69440;52.118;5.408;2023-10-31T09:24:55;10.07;;;5.57;;
80127;SDS011;69440;52.118;5.408;2023-10-31T09:27:22;5.70;;;2.10;;
80127;SDS011;69440;52.118;5.408;2023-10-31T09:29:48;6.28;;;2.05;;
80127;SDS011;69440;52.118;5.408;2023-10-31T09:32:15;7.43;;;2.50;;
80127;SDS011;69440;52.118;5.408;2023-10-31T09:34:42;6.32;;;2.83;;
80127;SDS011;69440;52.118;5.408;2023-10-31T09:37:09;7.72;;;2.20;;
80127;SDS011;69440;52.118;5.408;2023-10-31T09:39:35;4.45;;;2.08;;
80127;SDS011;69440;52.118;5.408;2023-10-31T09:42:02;6.85;;;2.10;;
80127;SDS011;69440;52.118;5.408;2023-10-31T09:44:29;8.65;;;2.33;;
80127;SDS011;69440;52.118;5.408;2023-10-31T09:46:55;6.63;;;2.30;;
80127;SDS011;69440;52.118;5.408;2023-10-31T09:49:23;5.55;;;2.33;;
80127;SDS011;69440;52.118;5.408;2023-10-31T09:51:50;10.20;;;4.55;;
80127;SDS011;69440;52.118;5.408;2023-10-31T09:54:17;7.47;;;2.45;;
80127;SDS011;69440;52.118;5.408;2023-10-31T09:56:43;5.85;;;2.35;;
80127;SDS011;69440;52.118;5.408;2023-10-31T09:59:10;9.50;;;4.10;;
80127;SDS011;69440;52.118;5.408;2023-10-31T10:01:37;13.45;;;5.38;;
80127;SDS011;69440;52.118;5.408;2023-10-31T10:04:04;8.90;;;5.93;;
80127;SDS011;69440;52.118;5.408;2023-10-31T10:06:31;7.03;;;2.30;;
80127;SDS011;69440;52.118;5.408;2023-10-31T10:08:58;13.15;;;7.95;;
80127;SDS011;69440;52.118;5.408;2023-10-31T10:11:25;7.18;;;2.72;;
80127;SDS011;69440;52.118;5.408;2023-10-31T10:13:52;7.65;;;4.00;;
80127;SDS011;69440;52.118;5.408;2023-10-31T10:16:29;5.30;;;2.00;;
80127;SDS011;69440;52.118;5.408;2023-10-31T10:18:57;5.55;;;2.17;;
80127;SDS011;69440;52.118;5.408;2023-10-31T10:21:23;8.52;;;2.63;;
80127;SDS011;69440;52.118;5.408;2023-10-31T10:23:51;5.40;;;2.33;;
80127;SDS011;69440;52.118;5.408;2023-10-31T10:26:18;4.32;;;2.80;;
80127;SDS011;69440;52.118;5.408;2023-10-31T10:29:00;3.17;;;1.65;;
80127;SDS011;69440;52.118;5.408;2023-10-31T10:31:27;11.38;;;3.67;;
80127;SDS011;69440;52.118;5.408;2023-10-31T10:33:54;8.50;;;3.72;;
80127;SDS011;69440;52.118;5.408;2023-10-31T10:36:21;9.68;;;3.42;;
80127;SDS011;69440;52.118;5.408;2023-10-31T10:38:51;4.38;;;2.28;;
80127;SDS011;69440;52.118;5.408;2023-10-31T10:41:25;9.45;;;3.97;;
80127;SDS011;69440;52.118;5.408;2023-10-31T10:44:05;4.45;;;2.35;;
80127;SDS011;69440;52.118;5.408;2023-10-31T10:46:33;5.00;;;2.28;;
80127;SDS011;69440;52.118;5.408;2023-10-31T10:49:03;8.43;;;2.60;;
80127;SDS011;69440;52.118;5.408;2023-10-31T10:54:15;6.78;;;2.50;;
80127;SDS011;69440;52.118;5.408;2023-10-31T10:56:46;4.38;;;1.77;;
80127;SDS011;69440;52.118;5.408;2023-10-31T10:59:47;8.43;;;2.63;;
80127;SDS011;69440;52.118;5.408;2023-10-31T11:02:17;4.53;;;2.10;;
80127;SDS011;69440;52.118;5.408;2023-10-31T11:04:44;8.00;;;2.03;;
80127;SDS011;69440;52.118;5.408;2023-10-31T11:07:11;7.13;;;2.78;;
80127;SDS011;69440;52.118;5.408;2023-10-31T11:09:38;8.85;;;2.20;;
80127;SDS011;69440;52.118;5.408;2023-10-31T11:12:05;6.60;;;2.40;;
80127;SDS011;69440;52.118;5.408;2023-10-31T11:14:33;6.40;;;2.10;;
80127;SDS011;69440;52.118;5.408;2023-10-31T11:17:01;5.55;;;2.35;;
80127;SDS011;69440;52.118;5.408;2023-10-31T11:19:32;10.18;;;4.13;;
80127;SDS011;69440;52.118;5.408;2023-10-31T11:22:00;5.47;;;3.17;;
80127;SDS011;69440;52.118;5.408;2023-10-31T11:24:28;5.05;;;2.75;;
80127;SDS011;69440;52.118;5.408;2023-10-31T11:27:00;6.35;;;2.90;;
80127;SDS011;69440;52.118;5.408;2023-10-31T11:29:28;4.63;;;2.10;;
80127;SDS011;69440;52.118;5.408;2023-10-31T11:31:55;4.55;;;2.00;;
80127;SDS011;69440;52.118;5.408;2023-10-31T11:34:22;5.05;;;1.90;;
80127;SDS011;69440;52.118;5.408;2023-10-31T11:36:52;4.18;;;1.67;;
80127;SDS011;69440;52.118;5.408;2023-10-31T11:39:19;3.53;;;1.45;;
80127;SDS011;69440;52.118;5.408;2023-10-31T11:41:55;4.32;;;1.75;;
80127;SDS011;69440;52.118;5.408;2023-10-31T11:44:25;4.30;;;2.10;;
80127;SDS011;69440;52.118;5.408;2023-10-31T11:46:53;11.60;;;2.88;;
80127;SDS011;69440;52.118;5.408;2023-10-31T11:52:15;7.30;;;2.80;;
80127;SDS011;69440;52.118;5.408;2023-10-31T11:54:43;6.43;;;2.55;;
80127;SDS011;69440;52.118;5.408;2023-10-31T11:57:09;4.85;;;2.67;;
80127;SDS011;69440;52.118;5.408;2023-10-31T11:59:39;8.52;;;2.78;;
80127;SDS011;69440;52.118;5.408;2023-10-31T12:02:13;8.30;;;3.42;;
80127;SDS011;69440;52.118;5.408;2023-10-31T12:04:41;7.10;;;4.00;;
80127;SDS011;69440;52.118;5.408;2023-10-31T12:07:08;11.13;;;4.68;;
80127;SDS011;69440;52.118;5.408;2023-10-31T12:09:47;10.30;;;5.28;;
80127;SDS011;69440;52.118;5.408;2023-10-31T12:12:14;11.60;;;5.78;;
80127;SDS011;69440;52.118;5.408;2023-10-31T12:14:41;11.00;;;5.70;;
80127;SDS011;69440;52.118;5.408;2023-10-31T12:17:08;14.73;;;6.53;;
80127;SDS011;69440;52.118;5.408;2023-10-31T12:19:36;12.25;;;7.55;;
80127;SDS011;69440;52.118;5.408;2023-10-31T12:22:11;13.95;;;8.88;;
80127;SDS011;69440;52.118;5.408;2023-10-31T12:24:39;16.23;;;9.40;;
80127;SDS011;69440;52.118;5.408;2023-10-31T12:27:05;16.77;;;10.55;;
80127;SDS011;69440;52.118;5.408;2023-10-31T12:29:32;20.98;;;10.80;;
80127;SDS011;69440;52.118;5.408;2023-10-31T12:31:58;21.58;;;11.18;;
80127;SDS011;69440;52.118;5.408;2023-10-31T12:34:25;21.33;;;11.38;;
80127;SDS011;69440;52.118;5.408;2023-10-31T12:36:52;21.58;;;11.98;;
80127;SDS011;69440;52.118;5.408;2023-10-31T12:39:26;25.40;;;13.80;;
80127;SDS011;69440;52.118;5.408;2023-10-31T12:41:54;23.05;;;12.43;;
80127;SDS011;69440;52.118;5.408;2023-10-31T12:44:23;21.65;;;11.90;;
80127;SDS011;69440;52.118;5.408;2023-10-31T12:46:53;21.38;;;11.95;;
80127;SDS011;69440;52.118;5.408;2023-10-31T12:49:20;24.23;;;10.95;;
80127;SDS011;69440;52.118;5.408;2023-10-31T12:52:03;28.90;;;11.73;;
80127;SDS011;69440;52.118;5.408;2023-10-31T12:54:31;23.63;;;11.57;;
80127;SDS011;69440;52.118;5.408;2023-10-31T12:56:59;20.88;;;11.07;;
80127;SDS011;69440;52.118;5.408;2023-10-31T12:59:31;23.13;;;11.70;;
80127;SDS011;69440;52.118;5.408;2023-10-31T13:02:02;20.35;;;10.90;;
80127;SDS011;69440;52.118;5.408;2023-10-31T13:04:31;22.45;;;11.73;;
80127;SDS011;69440;52.118;5.408;2023-10-31T13:06:59;22.40;;;12.38;;
80127;SDS011;69440;52.118;5.408;2023-10-31T13:09:33;21.40;;;11.30;;
80127;SDS011;69440;52.118;5.408;2023-10-31T13:12:02;23.17;;;12.32;;
80127;SDS011;69440;52.118;5.408;2023-10-31T13:14:30;30.20;;;12.07;;
80127;SDS011;69440;52.118;5.408;2023-10-31T13:16:57;23.73;;;11.40;;
80127;SDS011;69440;52.118;5.408;2023-10-31T13:19:25;20.83;;;11.02;;
80127;SDS011;69440;52.118;5.408;2023-10-31T13:21:51;23.05;;;10.43;;
80127;SDS011;69440;52.118;5.408;2023-10-31T13:24:18;20.83;;;11.15;;
80127;SDS011;69440;52.118;5.408;2023-10-31T13:26:45;19.73;;;10.18;;
80127;SDS011;69440;52.118;5.408;2023-10-31T13:29:17;20.48;;;10.57;;
80127;SDS011;69440;52.118;5.408;2023-10-31T13:31:44;18.40;;;9.85;;
80127;SDS011;69440;52.118;5.408;2023-10-31T13:34:11;19.95;;;9.90;;
80127;SDS011;69440;52.118;5.408;2023-10-31T13:36:37;20.05;;;9.88;;
80127;SDS011;69440;52.118;5.408;2023-10-31T13:39:04;18.60;;;10.07;;
80127;SDS011;69440;52.118;5.408;2023-10-31T13:41:31;18.52;;;10.20;;
80127;SDS011;69440;52.118;5.408;2023-10-31T13:43:57;17.85;;;9.77;;
80127;SDS011;69440;52.118;5.408;2023-10-31T13:46:24;15.93;;;8.75;;
80127;SDS011;69440;52.118;5.408;2023-10-31T13:48:50;16.02;;;9.25;;
80127;SDS011;69440;52.118;5.408;2023-10-31T13:51:17;18.38;;;9.07;;
80127;SDS011;69440;52.118;5.408;2023-10-31T13:53:45;18.65;;;10.05;;
80127;SDS011;69440;52.118;5.408;2023-10-31T13:56:11;22.05;;;11.23;;
80127;SDS011;69440;52.118;5.408;2023-10-31T13:58:38;18.50;;;9.55;;
80127;SDS011;69440;52.118;5.408;2023-10-31T14:01:04;14.77;;;8.80;;
80127;SDS011;69440;52.118;5.408;2023-10-31T14:03:32;15.13;;;8.20;;
80127;SDS011;69440;52.118;5.408;2023-10-31T14:05:58;18.77;;;9.90;;
80127;SDS011;69440;52.118;5.408;2023-10-31T14:08:25;14.82;;;8.30;;
80127;SDS011;69440;52.118;5.408;2023-10-31T14:10:51;20.02;;;10.20;;
80127;SDS011;69440;52.118;5.408;2023-10-31T14:13:18;19.52;;;8.82;;
80127;SDS011;69440;52.118;5.408;2023-10-31T14:15:46;17.10;;;8.63;;
80127;SDS011;69440;52.118;5.408;2023-10-31T14:18:13;14.32;;;9.27;;
80127;SDS011;69440;52.118;5.408;2023-10-31T14:20:41;14.35;;;8.25;;
80127;SDS011;69440;52.118;5.408;2023-10-31T14:23:08;15.02;;;8.30;;
80127;SDS011;69440;52.118;5.408;2023-10-31T14:25:35;15.50;;;9.13;;
80127;SDS011;69440;52.118;5.408;2023-10-31T14:28:02;13.63;;;8.52;;
80127;SDS011;69440;52.118;5.408;2023-10-31T14:30:30;17.90;;;9.38;;
80127;SDS011;69440;52.118;5.408;2023-10-31T14:32:57;14.50;;;9.20;;
80127;SDS011;69440;52.118;5.408;2023-10-31T14:35:23;16.23;;;9.75;;
80127;SDS011;69440;52.118;5.408;2023-10-31T14:37:50;17.52;;;10.02;;
80127;SDS011;69440;52.118;5.408;2023-10-31T14:40:16;18.48;;;10.05;;
80127;SDS011;69440;52.118;5.408;2023-10-31T14:42:44;18.42;;;10.27;;
80127;SDS011;69440;52.118;5.408;2023-10-31T14:45:11;15.18;;;9.98;;
80127;SDS011;69440;52.118;5.408;2023-10-31T14:47:38;21.67;;;11.88;;
80127;SDS011;69440;52.118;5.408;2023-10-31T14:50:05;20.33;;;10.93;;